createdAt,value
2023-02-15T00:01:38.566Z,102439.56
2023-02-15T00:04:06.532Z,102435.97
2023-02-15T00:06:34.521Z,102438.69
2023-02-15T00:09:02.471Z,102384.63
2023-02-15T00:11:43.717Z,102393.94
2023-02-15T00:14:13.983Z,102426.13
2023-02-15T00:16:42.278Z,102417.13
2023-02-15T00:19:10.400Z,102417.13
2023-02-15T00:21:38.915Z,102416.31
2023-02-15T00:24:08.311Z,102418.19
2023-02-15T00:26:36.214Z,102424.47
2023-02-15T00:29:04.374Z,102419.19
2023-02-15T00:31:34.182Z,102420.06
2023-02-15T00:34:04.069Z,102422.78
2023-02-15T00:36:32.000Z,102419.19
2023-02-15T00:38:59.949Z,102420.22
2023-02-15T00:41:28.113Z,102413.59
2023-02-15T00:43:56.051Z,102417.66
2023-02-15T00:46:23.988Z,102413.09
2023-02-15T00:48:53.452Z,102412.91
2023-02-15T00:51:22.356Z,102408.50
2023-02-15T00:53:50.300Z,102372.94
2023-02-15T00:56:18.258Z,102412.06
2023-02-15T00:58:46.255Z,102415.63
2023-02-15T01:01:14.895Z,102375.47
2023-02-15T01:03:43.578Z,102407.00
2023-02-15T01:06:12.970Z,102385.97
2023-02-15T01:08:40.875Z,102408.00
2023-02-15T01:11:09.239Z,102404.44
2023-02-15T01:13:37.204Z,102398.84
2023-02-15T01:16:05.958Z,102355.97
2023-02-15T01:18:34.085Z,102400.53
2023-02-15T01:21:02.060Z,102398.00
2023-02-15T01:23:31.586Z,102391.94
2023-02-15T01:26:04.107Z,102400.72
2023-02-15T01:28:32.201Z,102409.72
2023-02-15T01:31:00.535Z,102397.31
2023-02-15T01:33:28.752Z,102389.16
2023-02-15T01:35:59.495Z,102399.03
2023-02-15T01:38:27.604Z,102386.81
2023-02-15T01:41:18.168Z,102393.75
2023-02-15T01:43:47.325Z,102396.47
2023-02-15T01:46:15.490Z,102385.59
2023-02-15T01:48:46.034Z,102389.34
2023-02-15T01:51:14.002Z,102383.91
2023-02-15T01:53:43.951Z,102381.19
2023-02-15T01:56:14.927Z,102269.22
2023-02-15T01:58:42.820Z,102382.88
2023-02-15T02:01:10.781Z,102376.59
2023-02-15T02:03:43.387Z,102379.31
2023-02-15T02:06:11.739Z,102377.66
2023-02-15T02:08:39.772Z,102372.22
2023-02-15T02:11:14.069Z,102366.78
2023-02-15T02:13:42.017Z,102353.41
2023-02-15T02:16:12.406Z,102367.81
2023-02-15T02:18:46.559Z,102354.22
2023-02-15T02:21:33.195Z,102354.22
2023-02-15T02:24:22.275Z,102306.81
2023-02-15T02:27:26.317Z,102354.22
2023-02-15T02:30:29.640Z,102350.00
2023-02-15T02:33:16.537Z,102347.28
2023-02-15T02:35:47.697Z,102321.19
2023-02-15T02:38:19.603Z,102333.03
2023-02-15T02:40:53.925Z,102338.28
2023-02-15T02:43:23.370Z,102327.41
2023-02-15T02:45:53.426Z,102329.13
2023-02-15T02:48:24.017Z,102280.34
2023-02-15T02:50:51.918Z,102325.56
2023-02-15T02:53:20.195Z,102315.06
2023-02-15T02:55:49.215Z,102315.53
2023-02-15T02:58:19.041Z,102276.97
2023-02-15T03:00:47.792Z,102309.44
2023-02-15T03:03:16.769Z,102313.84
2023-02-15T03:05:46.901Z,102307.56
2023-02-15T03:08:22.650Z,102308.41
2023-02-15T03:10:50.747Z,102303.84
2023-02-15T03:13:19.124Z,102309.09
2023-02-15T03:16:04.301Z,102293.66
2023-02-15T03:18:33.267Z,102259.81
2023-02-15T03:21:02.608Z,102266.41
2023-02-15T03:23:30.767Z,102241.53
2023-02-15T03:25:59.995Z,102296.69
2023-02-15T03:28:29.726Z,102296.69
2023-02-15T03:30:58.512Z,102297.56
2023-02-15T03:33:26.764Z,102295.84
2023-02-15T03:35:57.918Z,102281.31
2023-02-15T03:38:29.046Z,102296.69
2023-02-15T03:41:12.332Z,102288.56
2023-02-15T03:43:44.112Z,102274.72
2023-02-15T03:46:14.886Z,102295.03
2023-02-15T03:48:44.589Z,102258.28
2023-02-15T03:51:35.881Z,102287.72
2023-02-15T03:54:06.828Z,102269.13
2023-02-15T03:56:35.794Z,102270.13
2023-02-15T03:59:22.353Z,102290.63
2023-02-15T04:01:59.366Z,102296.91
2023-02-15T04:04:37.421Z,102290.63
2023-02-15T04:07:06.708Z,102287.91
2023-02-15T04:09:53.712Z,102285.19
2023-02-15T04:12:21.608Z,102283.31
2023-02-15T04:15:08.620Z,102289.78
2023-02-15T04:17:38.142Z,102287.22
2023-02-15T04:20:24.769Z,102225.66
2023-02-15T04:23:10.002Z,102284.50
2023-02-15T04:25:39.406Z,102279.25
2023-02-15T04:28:08.596Z,102288.94
2023-02-15T04:30:36.619Z,102290.78
2023-02-15T04:33:04.870Z,102291.47
2023-02-15T04:35:34.464Z,102290.63
2023-02-15T04:38:02.431Z,102288.44
2023-02-15T04:40:30.333Z,102294.19
2023-02-15T04:42:59.632Z,102287.72
2023-02-15T04:45:28.140Z,102287.72
2023-02-15T04:47:56.182Z,102283.13
2023-02-15T04:50:24.191Z,102277.91
2023-02-15T04:52:52.424Z,102276.84
2023-02-15T04:55:20.327Z,102275.19
2023-02-15T04:57:48.377Z,102276.03
2023-02-15T05:00:18.359Z,102276.84
2023-02-15T05:02:46.580Z,102251.44
2023-02-15T05:05:16.164Z,102264.13
2023-02-15T05:07:44.060Z,102253.16
2023-02-15T05:10:12.036Z,102261.41
2023-02-15T05:12:40.272Z,102259.53
2023-02-15T05:15:10.750Z,102262.25
2023-02-15T05:17:41.074Z,102125.38
2023-02-15T05:20:09.587Z,102277.69
2023-02-15T05:22:37.829Z,102265.34
2023-02-15T05:25:23.527Z,102270.41
2023-02-15T05:28:08.589Z,102262.25
2023-02-15T05:30:37.005Z,102249.91
2023-02-15T05:33:06.733Z,102254.31
2023-02-15T05:35:34.728Z,102258.53
2023-02-15T05:38:02.567Z,102251.41
2023-02-15T05:40:30.462Z,102250.38
2023-02-15T05:42:58.815Z,102240.75
2023-02-15T05:45:26.873Z,102243.94
2023-02-15T05:47:54.778Z,102252.94
2023-02-15T05:50:24.077Z,102236.88
2023-02-15T05:52:53.418Z,102244.78
2023-02-15T05:55:21.321Z,102251.06
2023-02-15T05:57:49.242Z,102214.53
2023-02-15T06:00:17.874Z,102245.63
2023-02-15T06:02:46.118Z,102245.63
2023-02-15T06:05:14.124Z,102248.16
2023-02-15T06:07:44.819Z,102247.50
2023-02-15T06:10:12.782Z,102246.47
2023-02-15T06:12:41.049Z,102251.72
2023-02-15T06:15:12.182Z,102254.78
2023-02-15T06:17:40.080Z,102250.06
2023-02-15T06:20:09.339Z,102252.75
2023-02-15T06:22:37.607Z,102253.59
2023-02-15T06:25:10.849Z,102255.47
2023-02-15T06:27:38.798Z,102259.00
2023-02-15T06:30:14.339Z,102259.84
2023-02-15T06:32:42.672Z,102265.81
2023-02-15T06:35:10.646Z,102271.56
2023-02-15T06:37:38.595Z,102278.88
2023-02-15T06:40:09.511Z,102267.00
2023-02-15T06:42:37.774Z,102277.84
2023-02-15T06:45:08.606Z,102282.44
2023-02-15T06:47:36.660Z,102241.47
2023-02-15T06:50:05.053Z,102267.00
2023-02-15T06:52:33.438Z,102274.28
2023-02-15T06:55:01.351Z,102272.41
2023-02-15T06:57:31.017Z,102266.13
2023-02-15T06:59:59.408Z,102263.44
2023-02-15T07:02:27.704Z,102266.13
2023-02-15T07:04:55.726Z,102242.78
2023-02-15T07:07:23.716Z,102256.97
2023-02-15T07:09:51.678Z,102255.28
2023-02-15T07:12:37.245Z,102192.38
2023-02-15T07:15:10.116Z,102253.41
2023-02-15T07:17:38.272Z,102257.16
2023-02-15T07:20:08.752Z,102258.00
2023-02-15T07:22:37.244Z,102255.28
2023-02-15T07:25:05.333Z,102256.13
2023-02-15T07:27:33.440Z,102256.97
2023-02-15T07:30:01.418Z,102255.09
2023-02-15T07:32:31.717Z,102246.97
2023-02-15T07:34:59.714Z,102222.38
2023-02-15T07:37:27.887Z,102231.69
2023-02-15T07:39:55.774Z,102219.13
2023-02-15T07:42:24.062Z,102217.25
2023-02-15T07:44:53.686Z,102211.00
2023-02-15T07:47:21.647Z,102218.28
2023-02-15T07:49:52.214Z,102199.28
2023-02-15T07:52:20.379Z,102209.13
2023-02-15T07:54:48.338Z,102197.41
2023-02-15T07:57:16.399Z,102200.13
2023-02-15T07:59:44.636Z,102198.25
2023-02-15T08:02:12.858Z,102186.75
2023-02-15T08:04:41.103Z,102202.00
2023-02-15T08:07:10.359Z,102197.63
2023-02-15T08:09:38.263Z,102198.47
2023-02-15T08:12:06.713Z,102190.19
2023-02-15T08:14:34.845Z,102201.50
2023-02-15T08:17:05.957Z,102187.63
2023-02-15T08:19:35.457Z,102147.72
2023-02-15T08:22:05.022Z,102177.16
2023-02-15T08:24:35.326Z,102194.91
2023-02-15T08:27:06.159Z,102188.63
2023-02-15T08:29:34.640Z,102194.22
2023-02-15T08:32:03.949Z,102184.53
2023-02-15T08:34:32.437Z,102196.09
2023-02-15T08:37:00.405Z,102191.50
2023-02-15T08:39:28.445Z,102155.63
2023-02-15T08:41:58.082Z,102151.91
2023-02-15T08:44:26.146Z,102171.47
2023-02-15T08:46:54.080Z,102167.91
2023-02-15T08:49:22.926Z,102168.78
2023-02-15T08:51:51.312Z,102135.84
2023-02-15T08:54:20.224Z,102174.19
2023-02-15T08:56:48.171Z,102179.63
2023-02-15T08:59:18.137Z,102185.69
2023-02-15T09:01:46.624Z,102186.56
2023-02-15T09:04:16.560Z,102187.59
2023-02-15T09:06:47.642Z,102178.59
2023-02-15T09:09:16.218Z,102168.59
2023-02-15T09:11:45.442Z,102168.78
2023-02-15T09:14:15.427Z,102171.31
2023-02-15T09:16:47.210Z,102169.63
2023-02-15T09:19:15.253Z,102174.03
2023-02-15T09:21:43.591Z,102179.47
2023-02-15T09:24:12.545Z,102175.22
2023-02-15T09:26:41.787Z,102171.31
2023-02-15T09:29:09.950Z,102171.31
2023-02-15T09:31:42.254Z,102181.13
2023-02-15T09:34:11.636Z,102172.97
2023-02-15T09:36:40.951Z,102143.41
2023-02-15T09:39:10.372Z,102179.47
2023-02-15T09:42:20.226Z,102172.13
2023-02-15T09:45:39.460Z,102175.88
2023-02-15T09:48:24.156Z,102179.47
2023-02-15T09:50:59.731Z,102188.41
2023-02-15T09:53:44.749Z,102188.41
2023-02-15T09:56:17.209Z,102118.78
2023-02-15T09:58:49.627Z,102160.13
2023-02-15T10:01:21.054Z,102178.41
2023-02-15T10:03:57.457Z,102168.78
2023-02-15T10:06:45.346Z,102167.06
2023-02-15T10:09:52.015Z,102175.69
2023-02-15T10:12:31.187Z,102181.13
2023-02-15T10:15:20.345Z,102144.25
2023-02-15T10:17:57.464Z,102172.97
2023-02-15T10:20:29.016Z,102116.50
2023-02-15T10:23:15.852Z,102169.25
2023-02-15T10:25:46.504Z,102161.94
2023-02-15T10:28:18.639Z,102161.47
2023-02-15T10:30:49.061Z,102166.53
2023-02-15T10:33:25.838Z,102153.81
2023-02-15T10:35:57.972Z,102139.63
2023-02-15T10:38:30.340Z,102163.81
2023-02-15T10:41:06.655Z,102155.50
2023-02-15T10:43:45.176Z,102165.50
2023-02-15T10:46:16.745Z,102169.06
2023-02-15T10:48:57.724Z,102156.34
2023-02-15T10:51:28.968Z,102148.19
2023-02-15T10:54:07.452Z,102149.03
2023-02-15T10:56:37.754Z,102143.78
2023-02-15T10:59:21.205Z,102147.19
2023-02-15T11:01:51.323Z,102139.03
2023-02-15T11:04:53.614Z,102110.31
2023-02-15T11:07:23.446Z,102141.75
2023-02-15T11:09:54.418Z,102138.19
2023-02-15T11:12:24.560Z,102134.63
2023-02-15T11:14:55.223Z,102127.31
2023-02-15T11:17:24.596Z,102131.69
2023-02-15T11:19:58.144Z,102129.00
2023-02-15T11:22:26.106Z,102112.59
2023-02-15T11:24:55.760Z,102103.78
2023-02-15T11:27:24.441Z,102115.41
2023-02-15T11:29:59.627Z,102105.66
2023-02-15T11:32:29.828Z,102086.41
2023-02-15T11:35:00.570Z,102113.75
2023-02-15T11:37:31.395Z,102119.81
2023-02-15T11:40:01.673Z,102077.25
2023-02-15T11:42:29.870Z,102118.81
2023-02-15T11:45:00.925Z,102123.22
2023-02-15T11:47:28.952Z,102100.72
2023-02-15T11:49:56.843Z,102100.81
2023-02-15T11:52:25.415Z,102101.50
2023-02-15T11:54:53.539Z,102055.34
2023-02-15T11:57:25.695Z,102087.91
2023-02-15T11:59:55.124Z,101995.38
2023-02-15T12:02:23.852Z,102049.00
2023-02-15T12:04:56.626Z,102072.47
2023-02-15T12:07:28.335Z,102068.91
2023-02-15T12:10:01.511Z,102059.78
2023-02-15T12:12:31.932Z,102058.91
2023-02-15T12:15:00.401Z,102045.75
2023-02-15T12:17:31.987Z,102050.91
2023-02-15T12:20:00.271Z,102049.91
2023-02-15T12:22:30.483Z,102055.34
2023-02-15T12:24:59.512Z,102047.19
2023-02-15T12:27:32.247Z,102040.72
2023-02-15T12:30:03.277Z,102041.59
2023-02-15T12:32:33.549Z,101964.13
2023-02-15T12:35:02.903Z,101991.59
2023-02-15T12:37:32.981Z,102031.75
2023-02-15T12:40:04.567Z,102035.31
2023-02-15T12:42:53.224Z,102015.50
2023-02-15T12:45:28.703Z,101977.34
2023-02-15T12:48:11.667Z,102027.81
2023-02-15T12:50:40.925Z,102017.31
2023-02-15T12:53:11.241Z,102020.50
2023-02-15T12:55:45.690Z,102005.22
2023-02-15T12:58:21.586Z,102003.34
2023-02-15T13:00:49.749Z,102007.94
2023-02-15T13:03:22.575Z,101997.47
2023-02-15T13:05:51.686Z,101993.63
2023-02-15T13:08:20.950Z,102006.94
2023-02-15T13:10:55.716Z,102000.66
2023-02-15T13:13:29.053Z,101995.22
2023-02-15T13:15:58.495Z,101988.75
2023-02-15T13:18:31.607Z,101933.41
2023-02-15T13:21:02.072Z,101964.59
2023-02-15T13:23:31.408Z,101978.75
2023-02-15T13:26:00.881Z,101979.59
2023-02-15T13:28:36.630Z,101979.59
2023-02-15T13:31:04.985Z,101976.03
2023-02-15T13:33:34.659Z,101895.56
2023-02-15T13:36:08.712Z,101922.16
2023-02-15T13:38:52.940Z,101960.59
2023-02-15T13:41:22.424Z,101916.91
2023-02-15T13:43:57.275Z,101954.69
2023-02-15T13:46:31.632Z,101906.25
2023-02-15T13:49:07.428Z,101937.72
2023-02-15T13:51:38.006Z,101923.59
2023-02-15T13:54:26.110Z,101952.44
2023-02-15T13:56:58.915Z,101946.16
2023-02-15T13:59:42.329Z,101891.47
2023-02-15T14:02:35.234Z,101929.88
2023-02-15T14:05:24.056Z,101932.41
2023-02-15T14:07:58.803Z,101928.00
2023-02-15T14:10:34.909Z,101929.69
2023-02-15T14:13:50.451Z,101929.47
2023-02-15T14:16:23.240Z,101920.53
2023-02-15T14:18:53.364Z,101929.47
2023-02-15T14:21:23.926Z,101875.84
2023-02-15T14:23:59.535Z,101925.56
2023-02-15T14:26:32.900Z,101904.31
2023-02-15T14:29:04.851Z,101926.41
2023-02-15T14:31:36.453Z,101843.16
2023-02-15T14:34:05.359Z,101916.56
2023-02-15T14:36:33.445Z,101914.88
2023-02-15T14:39:31.296Z,101914.88
2023-02-15T14:41:59.789Z,101917.59
2023-02-15T14:44:31.193Z,101898.88
2023-02-15T14:47:02.312Z,101889.59
2023-02-15T14:49:32.953Z,101919.28
2023-02-15T14:52:08.059Z,101918.28
2023-02-15T14:55:00.961Z,101909.28
2023-02-15T14:57:37.735Z,101911.16
2023-02-15T15:00:41.506Z,101912.84
2023-02-15T15:03:23.716Z,101901.69
2023-02-15T15:05:53.433Z,101912.00
2023-02-15T15:08:27.738Z,101906.56
2023-02-15T15:10:56.614Z,101895.59
2023-02-15T15:13:43.269Z,101909.28
2023-02-15T15:16:51.742Z,101814.41
2023-02-15T15:20:08.396Z,101910.97
2023-02-15T15:22:38.387Z,101904.88
2023-02-15T15:25:10.612Z,101899.16
2023-02-15T15:27:46.495Z,101905.72
2023-02-15T15:31:04.376Z,101898.41
2023-02-15T15:34:04.317Z,101900.66
2023-02-15T15:37:08.608Z,101904.22
2023-02-15T15:40:15.235Z,101911.31
2023-02-15T15:42:50.496Z,101904.13
2023-02-15T15:45:54.671Z,101918.63
2023-02-15T15:48:33.460Z,101914.25
2023-02-15T15:51:02.893Z,101881.91
2023-02-15T15:53:32.702Z,101925.94
2023-02-15T15:56:03.544Z,101895.59
2023-02-15T15:58:32.673Z,101923.03
2023-02-15T16:01:01.833Z,101935.75
2023-02-15T16:03:30.377Z,101925.56
2023-02-15T16:06:01.412Z,101916.47
2023-02-15T16:08:31.268Z,101920.13
2023-02-15T16:10:59.214Z,101914.72
2023-02-15T16:13:28.805Z,101910.97
2023-02-15T16:15:57.390Z,101916.56
2023-02-15T16:18:28.591Z,101914.72
2023-02-15T16:20:57.362Z,101908.44
2023-02-15T16:23:52.636Z,101900.00
2023-02-15T16:26:25.300Z,101914.72
2023-02-15T16:28:55.257Z,101900.19
2023-02-15T16:31:24.404Z,101904.69
2023-02-15T16:33:55.072Z,101902.81
2023-02-15T16:36:23.999Z,101905.88
2023-02-15T16:39:11.950Z,101913.84
2023-02-15T16:41:40.314Z,101911.03
2023-02-15T16:44:14.174Z,101916.56
2023-02-15T16:46:42.764Z,101913.00
2023-02-15T16:49:17.296Z,101916.56
2023-02-15T16:51:45.762Z,101923.88
2023-02-15T16:54:17.708Z,101918.44
2023-02-15T16:56:47.322Z,101914.88
2023-02-15T16:59:22.461Z,101914.88
2023-02-15T17:01:50.394Z,101916.56
2023-02-15T17:04:28.729Z,101907.31
2023-02-15T17:07:05.930Z,101918.28
2023-02-15T17:09:34.126Z,101918.09
2023-02-15T17:12:03.213Z,101922.84
2023-02-15T17:14:33.412Z,101929.31
2023-02-15T17:17:03.378Z,101921.06
2023-02-15T17:19:32.727Z,101933.03
2023-02-15T17:22:02.284Z,101942.88
2023-02-15T17:24:39.485Z,101944.75
2023-02-15T17:27:12.946Z,101951.22
2023-02-15T17:29:42.873Z,101921.81
2023-02-15T17:32:17.414Z,101919.00
2023-02-15T17:35:09.208Z,101943.28
2023-02-15T17:37:47.567Z,101953.28
2023-02-15T17:40:24.457Z,101955.16
2023-02-15T17:42:52.452Z,101921.03
2023-02-15T17:45:22.139Z,101933.72
2023-02-15T17:47:50.529Z,101935.56
2023-02-15T17:50:22.097Z,101900.00
2023-02-15T17:52:50.349Z,101953.94
2023-02-15T17:55:39.172Z,101953.09
2023-02-15T17:58:08.599Z,101958.72
2023-02-15T18:00:57.773Z,101942.69
2023-02-15T18:03:43.611Z,101946.06
2023-02-15T18:06:29.438Z,101946.06
2023-02-15T18:09:15.080Z,101948.78
2023-02-15T18:11:48.616Z,101965.16
2023-02-15T18:14:16.517Z,101973.31
2023-02-15T18:16:46.246Z,101962.84
2023-02-15T18:19:18.830Z,101944.06
2023-02-15T18:21:47.200Z,101961.59
2023-02-15T18:24:19.150Z,101972.47
2023-02-15T18:26:47.056Z,101974.16
2023-02-15T18:29:15.040Z,101970.78
2023-02-15T18:31:43.002Z,101971.63
2023-02-15T18:34:20.250Z,101955.88
2023-02-15T18:36:48.204Z,101971.44
2023-02-15T18:39:27.051Z,101959.00
2023-02-15T18:41:55.007Z,101971.81
2023-02-15T18:44:22.925Z,101914.84
2023-02-15T18:46:50.940Z,101982.31
2023-02-15T18:49:20.412Z,101976.88
2023-02-15T18:51:48.678Z,101969.75
2023-02-15T18:54:20.753Z,101978.56
2023-02-15T18:56:53.337Z,101970.59
2023-02-15T18:59:22.076Z,101976.88
2023-02-15T19:01:49.977Z,101978.75
2023-02-15T19:04:18.356Z,101975.19
2023-02-15T19:06:48.840Z,101898.44
2023-02-15T19:09:18.243Z,101979.59
2023-02-15T19:11:49.166Z,101982.50
2023-02-15T19:14:24.359Z,101984.19
2023-02-15T19:16:52.577Z,101989.59
2023-02-15T19:19:20.596Z,101986.91
2023-02-15T19:21:50.170Z,101989.59
2023-02-15T19:24:19.767Z,101989.59
2023-02-15T19:26:47.706Z,101989.44
2023-02-15T19:29:16.852Z,101954.28
2023-02-15T19:31:44.827Z,101980.44
2023-02-15T19:34:14.752Z,101977.72
2023-02-15T19:36:42.813Z,101984.00
2023-02-15T19:39:21.584Z,101985.03
2023-02-15T19:41:49.492Z,101984.00
2023-02-15T19:44:17.718Z,101978.75
2023-02-15T19:46:45.879Z,101978.91
2023-02-15T19:49:13.807Z,101930.00
2023-02-15T19:51:42.034Z,101849.69
2023-02-15T19:54:22.537Z,101966.03
2023-02-15T19:56:50.414Z,101973.13
2023-02-15T19:59:23.661Z,101976.03
2023-02-15T20:01:52.041Z,101972.47
2023-02-15T20:04:20.054Z,101977.06
2023-02-15T20:06:48.384Z,101975.00
2023-02-15T20:09:20.198Z,101976.03
2023-02-15T20:11:49.855Z,101986.91
2023-02-15T20:14:17.702Z,101982.19
2023-02-15T20:16:45.578Z,101887.69
2023-02-15T20:19:14.159Z,101984.06
2023-02-15T20:21:42.409Z,102008.63
2023-02-15T20:24:13.235Z,101992.59
2023-02-15T20:26:41.159Z,102007.78
2023-02-15T20:29:13.386Z,102004.88
2023-02-15T20:31:41.633Z,102003.19
2023-02-15T20:34:09.593Z,102010.50
2023-02-15T20:36:37.475Z,102006.94
2023-02-15T20:39:09.573Z,102006.94
2023-02-15T20:41:40.014Z,101999.81
2023-02-15T20:44:18.811Z,102009.63
2023-02-15T20:46:46.784Z,102001.50
2023-02-15T20:49:14.814Z,101993.34
2023-02-15T20:51:44.704Z,102001.50
2023-02-15T20:54:14.694Z,101974.88
2023-02-15T20:56:43.313Z,102004.22
2023-02-15T20:59:26.498Z,101995.13
2023-02-15T21:01:57.030Z,102005.91
2023-02-15T21:04:27.699Z,102012.34
2023-02-15T21:06:55.634Z,102021.19
2023-02-15T21:09:23.525Z,102008.31
2023-02-15T21:11:52.066Z,102004.94
2023-02-15T21:14:20.691Z,102023.22
2023-02-15T21:16:50.221Z,102025.28
2023-02-15T21:19:18.967Z,102013.75
2023-02-15T21:21:48.589Z,101975.78
2023-02-15T21:24:16.965Z,102015.81
2023-02-15T21:26:46.203Z,101893.94
2023-02-15T21:29:18.191Z,102034.09
2023-02-15T21:31:46.518Z,102031.53
2023-02-15T21:34:15.967Z,102031.53
2023-02-15T21:36:43.856Z,102035.09
2023-02-15T21:39:18.735Z,102030.50
2023-02-15T21:42:04.547Z,102021.53
2023-02-15T21:44:50.205Z,102026.94
2023-02-15T21:47:39.367Z,101977.34
2023-02-15T21:50:27.809Z,101950.19
2023-02-15T21:52:55.748Z,102017.16
2023-02-15T21:55:26.381Z,102019.88
2023-02-15T21:57:54.309Z,102016.28
2023-02-15T22:00:23.324Z,102010.66
2023-02-15T22:02:53.818Z,102015.25
2023-02-15T22:05:24.497Z,102013.38
2023-02-15T22:07:52.459Z,102012.53
2023-02-15T22:10:22.704Z,102010.88
2023-02-15T22:12:51.121Z,102016.09
2023-02-15T22:15:20.401Z,102010.66
2023-02-15T22:17:48.440Z,102002.50
2023-02-15T22:20:17.521Z,101999.81
2023-02-15T22:22:50.196Z,101987.34
2023-02-15T22:25:19.389Z,101924.84
2023-02-15T22:27:47.500Z,101993.53
2023-02-15T22:30:21.483Z,101996.25
2023-02-15T22:32:49.867Z,101992.72
2023-02-15T22:35:18.423Z,101973.84
2023-02-15T22:37:47.793Z,102007.94
2023-02-15T22:40:16.794Z,102014.22
2023-02-15T22:42:46.439Z,101954.44
2023-02-15T22:45:17.539Z,102000.66
2023-02-15T22:47:45.472Z,102000.66
2023-02-15T22:50:20.135Z,102001.50
2023-02-15T22:52:49.450Z,102007.31
2023-02-15T22:55:17.568Z,102018.63
2023-02-15T22:57:45.880Z,102021.34
2023-02-15T23:00:16.960Z,102025.94
2023-02-15T23:02:45.161Z,102018.63
2023-02-15T23:05:23.427Z,102014.03
2023-02-15T23:07:52.743Z,102018.34
2023-02-15T23:10:24.724Z,102012.53
2023-02-15T23:13:11.769Z,102002.44
2023-02-15T23:15:39.820Z,102012.53
2023-02-15T23:18:18.406Z,102010.88
2023-02-15T23:20:46.750Z,101887.84
2023-02-15T23:23:16.365Z,102013.75
2023-02-15T23:25:44.256Z,102000.91
2023-02-15T23:28:23.479Z,102005.31
2023-02-15T23:30:51.497Z,102009.34
2023-02-15T23:33:23.604Z,102007.47
2023-02-15T23:35:51.581Z,102001.19
2023-02-15T23:38:25.831Z,101931.72
2023-02-15T23:41:16.063Z,101970.06
2023-02-15T23:43:46.663Z,101967.72
2023-02-15T23:46:34.969Z,102013.09
2023-02-15T23:49:15.213Z,102013.28
2023-02-15T23:51:44.296Z,102008.28
2023-02-15T23:54:13.609Z,101972.97
2023-02-15T23:56:41.697Z,101894.28
2023-02-15T23:59:09.693Z,102010.56
